Detroit, Michigan
Traffic Map
Current Weather Conditions
Detroit, Michigan
Few Clouds
Few Clouds
28°
Feels Like: 29°
Wind Chill: 28° Ceiling: Unl
Heat Index: 29° Visibility: 15mi
Dew Point: 19° Wind: 12mph
Humidity: 58% Direction: 280° (W)
Pressure: 29.86in Gusts: 21mph
Raw Report DataCYQG 202200Z 28010G18KT 15SM FEW040TCU FEW110 FEW280 28/19 A2986 RMK TCU2AC1CI1 TR CI CB TOPS DIST N MOVG E SLP109
Traffic Incident Summary
Active as of:
Severity:
Category:
InformationThere was an issue retrieving the traffic information for this location. Please try a different location or try again shortly.
Advertisements
Track Severe Weather on mobile